sensor_id;sensor_type;location;lat;lon;timestamp;pressure;altitude;pressure_sealevel;temperature;humidity
19286;BME280;9776;50.798;6.430;2023-03-04T00:02:08;101174.34;;;3.75;64.12
19286;BME280;9776;50.798;6.430;2023-03-04T00:04:35;101184.16;;;3.72;64.33
19286;BME280;9776;50.798;6.430;2023-03-04T00:07:01;101177.75;;;3.77;64.37
19286;BME280;9776;50.798;6.430;2023-03-04T00:09:28;101180.06;;;3.82;64.41
19286;BME280;9776;50.798;6.430;2023-03-04T00:11:54;101179.00;;;3.86;64.42
19286;BME280;9776;50.798;6.430;2023-03-04T00:14:21;101171.72;;;3.91;64.42
19286;BME280;9776;50.798;6.430;2023-03-04T00:16:48;101175.78;;;3.96;64.31
19286;BME280;9776;50.798;6.430;2023-03-04T00:19:16;101173.16;;;3.96;64.54
19286;BME280;9776;50.798;6.430;2023-03-04T00:21:42;101171.91;;;3.88;64.67
19286;BME280;9776;50.798;6.430;2023-03-04T00:24:09;101185.47;;;3.79;64.78
19286;BME280;9776;50.798;6.430;2023-03-04T00:26:36;101175.38;;;3.73;65.11
19286;BME280;9776;50.798;6.430;2023-03-04T00:29:02;101183.47;;;3.68;65.21
19286;BME280;9776;50.798;6.430;2023-03-04T00:31:29;101177.41;;;3.68;65.25
19286;BME280;9776;50.798;6.430;2023-03-04T00:33:56;101180.00;;;3.68;65.31
19286;BME280;9776;50.798;6.430;2023-03-04T00:36:24;101177.31;;;3.69;65.39
19286;BME280;9776;50.798;6.430;2023-03-04T00:38:50;101175.69;;;3.67;65.35
19286;BME280;9776;50.798;6.430;2023-03-04T00:41:17;101170.56;;;3.65;65.53
19286;BME280;9776;50.798;6.430;2023-03-04T00:43:44;101172.28;;;3.66;65.59
19286;BME280;9776;50.798;6.430;2023-03-04T00:46:10;101167.97;;;3.65;65.69
19286;BME280;9776;50.798;6.430;2023-03-04T00:48:37;101168.81;;;3.66;65.72
19286;BME280;9776;50.798;6.430;2023-03-04T00:51:06;101166.22;;;3.66;65.67
19286;BME280;9776;50.798;6.430;2023-03-04T00:53:34;101166.97;;;3.68;65.57
19286;BME280;9776;50.798;6.430;2023-03-04T00:56:01;101168.66;;;3.69;65.68
19286;BME280;9776;50.798;6.430;2023-03-04T00:58:27;101165.78;;;3.73;65.76
19286;BME280;9776;50.798;6.430;2023-03-04T01:00:57;101172.69;;;3.74;65.70
19286;BME280;9776;50.798;6.430;2023-03-04T01:03:24;101170.06;;;3.74;65.63
19286;BME280;9776;50.798;6.430;2023-03-04T01:05:51;101175.38;;;3.73;65.84
19286;BME280;9776;50.798;6.430;2023-03-04T01:08:17;101168.31;;;3.75;65.86
19286;BME280;9776;50.798;6.430;2023-03-04T01:10:45;101170.81;;;3.76;65.73
19286;BME280;9776;50.798;6.430;2023-03-04T01:13:12;101171.75;;;3.75;65.74
19286;BME280;9776;50.798;6.430;2023-03-04T01:15:39;101173.53;;;3.75;65.93
19286;BME280;9776;50.798;6.430;2023-03-04T01:18:06;101175.03;;;3.79;65.86
19286;BME280;9776;50.798;6.430;2023-03-04T01:20:32;101169.41;;;3.86;65.83
19286;BME280;9776;50.798;6.430;2023-03-04T01:22:59;101165.41;;;3.95;65.51
19286;BME280;9776;50.798;6.430;2023-03-04T01:25:26;101154.81;;;3.98;65.49
19286;BME280;9776;50.798;6.430;2023-03-04T01:27:54;101159.91;;;3.99;65.48
19286;BME280;9776;50.798;6.430;2023-03-04T01:30:20;101161.69;;;3.99;65.57
19286;BME280;9776;50.798;6.430;2023-03-04T01:32:47;101157.25;;;4.01;65.56
19286;BME280;9776;50.798;6.430;2023-03-04T01:35:14;101153.94;;;3.97;65.64
19286;BME280;9776;50.798;6.430;2023-03-04T01:37:40;101158.34;;;3.97;65.73
19286;BME280;9776;50.798;6.430;2023-03-04T01:40:08;101146.19;;;3.96;65.70
19286;BME280;9776;50.798;6.430;2023-03-04T01:42:35;101152.94;;;4.00;65.62
19286;BME280;9776;50.798;6.430;2023-03-04T01:45:04;101141.19;;;4.07;65.56
19286;BME280;9776;50.798;6.430;2023-03-04T01:47:32;101138.22;;;4.13;65.38
19286;BME280;9776;50.798;6.430;2023-03-04T01:50:02;101135.38;;;4.18;65.32
19286;BME280;9776;50.798;6.430;2023-03-04T01:52:29;101130.31;;;4.15;65.38
19286;BME280;9776;50.798;6.430;2023-03-04T01:54:56;101135.88;;;4.09;65.43
19286;BME280;9776;50.798;6.430;2023-03-04T01:57:24;101130.00;;;4.05;65.57
19286;BME280;9776;50.798;6.430;2023-03-04T02:02:51;101124.09;;;4.01;65.61
19286;BME280;9776;50.798;6.430;2023-03-04T02:05:18;101126.53;;;4.05;65.53
19286;BME280;9776;50.798;6.430;2023-03-04T02:07:46;101117.59;;;4.09;65.54
19286;BME280;9776;50.798;6.430;2023-03-04T02:10:13;101116.50;;;4.13;65.41
19286;BME280;9776;50.798;6.430;2023-03-04T02:12:41;101109.47;;;4.13;65.36
19286;BME280;9776;50.798;6.430;2023-03-04T02:15:08;101108.56;;;4.14;65.35
19286;BME280;9776;50.798;6.430;2023-03-04T02:17:35;101107.66;;;4.15;65.29
19286;BME280;9776;50.798;6.430;2023-03-04T02:20:14;101106.34;;;4.22;65.18
19286;BME280;9776;50.798;6.430;2023-03-04T02:22:50;101112.22;;;4.26;64.98
19286;BME280;9776;50.798;6.430;2023-03-04T02:25:22;101110.66;;;4.23;65.07
19286;BME280;9776;50.798;6.430;2023-03-04T02:27:51;101104.47;;;4.24;65.07
19286;BME280;9776;50.798;6.430;2023-03-04T02:30:20;101105.31;;;4.25;65.22
19286;BME280;9776;50.798;6.430;2023-03-04T02:32:47;101107.75;;;4.28;65.02
19286;BME280;9776;50.798;6.430;2023-03-04T02:35:15;101110.75;;;4.36;64.88
19286;BME280;9776;50.798;6.430;2023-03-04T02:37:43;101098.34;;;4.39;64.70
19286;BME280;9776;50.798;6.430;2023-03-04T02:40:13;101102.66;;;4.40;64.71
19286;BME280;9776;50.798;6.430;2023-03-04T02:42:43;101101.81;;;4.40;64.69
19286;BME280;9776;50.798;6.430;2023-03-04T02:45:33;101096.00;;;4.35;64.73
19286;BME280;9776;50.798;6.430;2023-03-04T02:48:01;101089.59;;;4.40;64.49
19286;BME280;9776;50.798;6.430;2023-03-04T02:50:33;101091.16;;;4.43;64.49
19286;BME280;9776;50.798;6.430;2023-03-04T02:53:00;101091.06;;;4.44;64.61
19286;BME280;9776;50.798;6.430;2023-03-04T02:55:26;101089.59;;;4.40;64.63
19286;BME280;9776;50.798;6.430;2023-03-04T02:57:53;101091.63;;;4.35;64.97
19286;BME280;9776;50.798;6.430;2023-03-04T03:00:20;101095.34;;;4.31;64.89
19286;BME280;9776;50.798;6.430;2023-03-04T03:02:48;101085.38;;;4.38;64.75
19286;BME280;9776;50.798;6.430;2023-03-04T03:05:15;101078.19;;;4.41;64.63
19286;BME280;9776;50.798;6.430;2023-03-04T03:07:42;101081.44;;;4.45;64.55
19286;BME280;9776;50.798;6.430;2023-03-04T03:10:10;101073.34;;;4.49;64.51
19286;BME280;9776;50.798;6.430;2023-03-04T03:12:36;101079.41;;;4.50;64.36
19286;BME280;9776;50.798;6.430;2023-03-04T03:15:03;101081.09;;;4.51;64.42
19286;BME280;9776;50.798;6.430;2023-03-04T03:17:30;101072.69;;;4.46;64.48
19286;BME280;9776;50.798;6.430;2023-03-04T03:19:58;101071.84;;;4.45;64.49
19286;BME280;9776;50.798;6.430;2023-03-04T03:22:25;101077.06;;;4.45;64.52
19286;BME280;9776;50.798;6.430;2023-03-04T03:24:51;101068.50;;;4.43;64.62
19286;BME280;9776;50.798;6.430;2023-03-04T03:27:18;101073.53;;;4.46;64.51
19286;BME280;9776;50.798;6.430;2023-03-04T03:29:45;101076.53;;;4.54;64.35
19286;BME280;9776;50.798;6.430;2023-03-04T03:32:11;101071.09;;;4.57;64.23
19286;BME280;9776;50.798;6.430;2023-03-04T03:34:38;101066.63;;;4.59;64.19
19286;BME280;9776;50.798;6.430;2023-03-04T03:37:06;101064.00;;;4.59;64.27
19286;BME280;9776;50.798;6.430;2023-03-04T03:39:32;101054.69;;;4.55;64.28
19286;BME280;9776;50.798;6.430;2023-03-04T03:41:59;101054.56;;;4.57;64.35
19286;BME280;9776;50.798;6.430;2023-03-04T03:44:26;101055.31;;;4.59;64.29
19286;BME280;9776;50.798;6.430;2023-03-04T03:46:52;101054.38;;;4.60;64.23
19286;BME280;9776;50.798;6.430;2023-03-04T03:49:19;101059.63;;;4.60;64.18
19286;BME280;9776;50.798;6.430;2023-03-04T03:51:45;101064.00;;;4.59;64.19
19286;BME280;9776;50.798;6.430;2023-03-04T03:54:13;101061.69;;;4.55;64.28
19286;BME280;9776;50.798;6.430;2023-03-04T03:56:40;101055.72;;;4.53;64.37
19286;BME280;9776;50.798;6.430;2023-03-04T03:59:07;101057.47;;;4.52;64.32
19286;BME280;9776;50.798;6.430;2023-03-04T04:01:33;101052.16;;;4.54;64.36
19286;BME280;9776;50.798;6.430;2023-03-04T04:04:00;101053.91;;;4.53;64.38
19286;BME280;9776;50.798;6.430;2023-03-04T04:06:27;101055.78;;;4.51;64.40
19286;BME280;9776;50.798;6.430;2023-03-04T04:08:53;101052.25;;;4.52;64.39
19286;BME280;9776;50.798;6.430;2023-03-04T04:11:21;101053.72;;;4.56;64.20
19286;BME280;9776;50.798;6.430;2023-03-04T04:13:48;101057.28;;;4.55;64.29
19286;BME280;9776;50.798;6.430;2023-03-04T04:16:15;101058.78;;;4.59;64.23
19286;BME280;9776;50.798;6.430;2023-03-04T04:18:41;101051.69;;;4.62;64.30
19286;BME280;9776;50.798;6.430;2023-03-04T04:21:08;101050.94;;;4.59;64.22
19286;BME280;9776;50.798;6.430;2023-03-04T04:23:35;101053.53;;;4.59;64.21
19286;BME280;9776;50.798;6.430;2023-03-04T04:26:01;101055.41;;;4.57;64.24
19286;BME280;9776;50.798;6.430;2023-03-04T04:28:29;101048.50;;;4.56;64.31
19286;BME280;9776;50.798;6.430;2023-03-04T04:30:56;101048.88;;;4.50;64.42
19286;BME280;9776;50.798;6.430;2023-03-04T04:33:23;101047.38;;;4.46;64.56
19286;BME280;9776;50.798;6.430;2023-03-04T04:35:49;101050.09;;;4.45;64.63
19286;BME280;9776;50.798;6.430;2023-03-04T04:38:16;101049.25;;;4.44;64.62
19286;BME280;9776;50.798;6.430;2023-03-04T04:40:43;101050.25;;;4.42;64.69
19286;BME280;9776;50.798;6.430;2023-03-04T04:43:09;101053.25;;;4.36;64.73
19286;BME280;9776;50.798;6.430;2023-03-04T04:45:37;101055.03;;;4.35;64.83
19286;BME280;9776;50.798;6.430;2023-03-04T04:48:04;101055.22;;;4.32;64.88
19286;BME280;9776;50.798;6.430;2023-03-04T04:50:31;101058.75;;;4.31;64.95
19286;BME280;9776;50.798;6.430;2023-03-04T04:52:58;101052.69;;;4.31;64.86
19286;BME280;9776;50.798;6.430;2023-03-04T04:55:24;101054.88;;;4.38;64.77
19286;BME280;9776;50.798;6.430;2023-03-04T04:57:51;101047.56;;;4.43;64.68
19286;BME280;9776;50.798;6.430;2023-03-04T05:00:18;101062.13;;;4.47;64.56
19286;BME280;9776;50.798;6.430;2023-03-04T05:02:46;101062.03;;;4.49;64.67
19286;BME280;9776;50.798;6.430;2023-03-04T05:05:13;101055.31;;;4.45;64.69
19286;BME280;9776;50.798;6.430;2023-03-04T05:07:39;101064.91;;;4.44;64.72
19286;BME280;9776;50.798;6.430;2023-03-04T05:10:07;101067.47;;;4.46;64.63
19286;BME280;9776;50.798;6.430;2023-03-04T05:12:37;101070.16;;;4.44;64.79
19286;BME280;9776;50.798;6.430;2023-03-04T05:15:04;101064.91;;;4.44;64.79
19286;BME280;9776;50.798;6.430;2023-03-04T05:17:31;101064.91;;;4.44;64.86
19286;BME280;9776;50.798;6.430;2023-03-04T05:19:59;101063.25;;;4.43;64.83
19286;BME280;9776;50.798;6.430;2023-03-04T05:22:26;101064.09;;;4.44;64.91
19286;BME280;9776;50.798;6.430;2023-03-04T05:24:52;101068.50;;;4.43;64.89
19286;BME280;9776;50.798;6.430;2023-03-04T05:27:19;101063.25;;;4.43;64.96
19286;BME280;9776;50.798;6.430;2023-03-04T05:29:46;101065.13;;;4.41;64.91
19286;BME280;9776;50.798;6.430;2023-03-04T05:32:12;101065.31;;;4.38;65.08
19286;BME280;9776;50.798;6.430;2023-03-04T05:34:39;101071.28;;;4.40;65.01
19286;BME280;9776;50.798;6.430;2023-03-04T05:37:07;101066.97;;;4.39;65.06
19286;BME280;9776;50.798;6.430;2023-03-04T05:39:33;101064.38;;;4.39;65.17
19286;BME280;9776;50.798;6.430;2023-03-04T05:42:00;101066.91;;;4.41;65.00
19286;BME280;9776;50.798;6.430;2023-03-04T05:44:27;101067.63;;;4.43;65.00
19286;BME280;9776;50.798;6.430;2023-03-04T05:46:53;101072.75;;;4.44;64.99
19286;BME280;9776;50.798;6.430;2023-03-04T05:49:20;101066.63;;;4.45;65.04
19286;BME280;9776;50.798;6.430;2023-03-04T05:51:47;101063.81;;;4.48;64.90
19286;BME280;9776;50.798;6.430;2023-03-04T05:54:15;101072.22;;;4.53;64.87
19286;BME280;9776;50.798;6.430;2023-03-04T05:56:41;101078.47;;;4.51;64.98
19286;BME280;9776;50.798;6.430;2023-03-04T05:59:08;101079.88;;;4.56;64.86
19286;BME280;9776;50.798;6.430;2023-03-04T06:01:35;101087.91;;;4.68;64.62
19286;BME280;9776;50.798;6.430;2023-03-04T06:04:01;101083.16;;;4.74;64.47
19286;BME280;9776;50.798;6.430;2023-03-04T06:06:28;101084.53;;;4.80;64.42
19286;BME280;9776;50.798;6.430;2023-03-04T06:08:54;101072.97;;;4.84;64.27
19286;BME280;9776;50.798;6.430;2023-03-04T06:11:22;101086.13;;;4.82;64.27
19286;BME280;9776;50.798;6.430;2023-03-04T06:13:49;101089.22;;;4.75;64.49
19286;BME280;9776;50.798;6.430;2023-03-04T06:16:16;101087.91;;;4.68;64.60
19286;BME280;9776;50.798;6.430;2023-03-04T06:18:42;101083.69;;;4.65;64.77
19286;BME280;9776;50.798;6.430;2023-03-04T06:21:09;101085.69;;;4.62;64.80
19286;BME280;9776;50.798;6.430;2023-03-04T06:23:35;101087.34;;;4.63;64.83
19286;BME280;9776;50.798;6.430;2023-03-04T06:26:02;101087.44;;;4.61;64.83
19286;BME280;9776;50.798;6.430;2023-03-04T06:28:31;101088.31;;;4.62;64.80
19286;BME280;9776;50.798;6.430;2023-03-04T06:30:58;101088.38;;;4.60;65.00
19286;BME280;9776;50.798;6.430;2023-03-04T06:33:25;101094.16;;;4.65;64.93
19286;BME280;9776;50.798;6.430;2023-03-04T06:35:53;101093.97;;;4.68;64.76
19286;BME280;9776;50.798;6.430;2023-03-04T06:38:20;101094.81;;;4.69;64.77
19286;BME280;9776;50.798;6.430;2023-03-04T06:40:47;101099.97;;;4.70;64.80
19286;BME280;9776;50.798;6.430;2023-03-04T06:43:13;101103.41;;;4.71;64.88
19286;BME280;9776;50.798;6.430;2023-03-04T06:45:41;101098.09;;;4.72;64.86
19286;BME280;9776;50.798;6.430;2023-03-04T06:48:08;101099.78;;;4.73;64.85
19286;BME280;9776;50.798;6.430;2023-03-04T06:50:35;101111.00;;;4.75;64.92
19286;BME280;9776;50.798;6.430;2023-03-04T06:53:01;101103.03;;;4.77;64.91
19286;BME280;9776;50.798;6.430;2023-03-04T06:55:28;101109.09;;;4.77;64.88
19286;BME280;9776;50.798;6.430;2023-03-04T06:57:55;101106.41;;;4.79;64.82
19286;BME280;9776;50.798;6.430;2023-03-04T07:00:22;101113.13;;;4.83;64.83
19286;BME280;9776;50.798;6.430;2023-03-04T07:02:50;101111.34;;;4.83;64.76
19286;BME280;9776;50.798;6.430;2023-03-04T07:05:17;101111.34;;;4.83;64.81
19286;BME280;9776;50.798;6.430;2023-03-04T07:07:44;101104.53;;;4.81;64.90
19286;BME280;9776;50.798;6.430;2023-03-04T07:10:10;101116.50;;;4.85;64.81
19286;BME280;9776;50.798;6.430;2023-03-04T07:12:37;101112.00;;;4.87;64.74
19286;BME280;9776;50.798;6.430;2023-03-04T07:15:05;101122.28;;;4.90;64.72
19286;BME280;9776;50.798;6.430;2023-03-04T07:17:31;101124.91;;;4.90;64.77
19286;BME280;9776;50.798;6.430;2023-03-04T07:20:00;101128.25;;;4.92;64.75
19286;BME280;9776;50.798;6.430;2023-03-04T07:22:27;101129.94;;;4.93;64.70
19286;BME280;9776;50.798;6.430;2023-03-04T07:24:54;101127.16;;;4.96;64.58
19286;BME280;9776;50.798;6.430;2023-03-04T07:27:20;101126.38;;;4.94;64.64
19286;BME280;9776;50.798;6.430;2023-03-04T07:29:47;101131.63;;;4.94;64.70
19286;BME280;9776;50.798;6.430;2023-03-04T07:32:14;101122.00;;;4.94;64.80
19286;BME280;9776;50.798;6.430;2023-03-04T07:34:40;101131.25;;;5.00;64.70
19286;BME280;9776;50.798;6.430;2023-03-04T07:37:11;101134.63;;;5.02;64.69
19286;BME280;9776;50.798;6.430;2023-03-04T07:39:37;101133.41;;;5.07;64.60
19286;BME280;9776;50.798;6.430;2023-03-04T07:42:04;101135.44;;;5.17;64.51
19286;BME280;9776;50.798;6.430;2023-03-04T07:44:31;101134.31;;;5.21;64.43
19286;BME280;9776;50.798;6.430;2023-03-04T07:46:57;101137.03;;;5.19;64.61
19286;BME280;9776;50.798;6.430;2023-03-04T07:49:24;101137.03;;;5.19;64.46
19286;BME280;9776;50.798;6.430;2023-03-04T07:51:51;101142.28;;;5.19;64.53
19286;BME280;9776;50.798;6.430;2023-03-04T07:54:19;101145.69;;;5.20;64.53
19286;BME280;9776;50.798;6.430;2023-03-04T07:56:46;101146.34;;;5.23;64.41
19286;BME280;9776;50.798;6.430;2023-03-04T07:59:12;101145.25;;;5.27;64.37
19286;BME280;9776;50.798;6.430;2023-03-04T08:01:39;101145.06;;;5.30;64.20
19286;BME280;9776;50.798;6.430;2023-03-04T08:04:06;101141.41;;;5.33;64.27
19286;BME280;9776;50.798;6.430;2023-03-04T08:06:33;101143.16;;;5.32;64.22
19286;BME280;9776;50.798;6.430;2023-03-04T08:09:02;101142.78;;;5.38;64.15
19286;BME280;9776;50.798;6.430;2023-03-04T08:11:33;101139.25;;;5.39;64.12
19286;BME280;9776;50.798;6.430;2023-03-04T08:14:00;101141.66;;;5.42;64.12
19286;BME280;9776;50.798;6.430;2023-03-04T08:16:27;101145.09;;;5.43;64.07
19286;BME280;9776;50.798;6.430;2023-03-04T08:18:55;101142.94;;;5.49;63.96
19286;BME280;9776;50.798;6.430;2023-03-04T08:21:23;101144.53;;;5.52;63.86
19286;BME280;9776;50.798;6.430;2023-03-04T08:23:51;101147.91;;;5.54;64.04
19286;BME280;9776;50.798;6.430;2023-03-04T08:26:20;101141.63;;;5.56;63.86
19286;BME280;9776;50.798;6.430;2023-03-04T08:28:48;101144.06;;;5.59;63.94
19286;BME280;9776;50.798;6.430;2023-03-04T08:31:16;101150.97;;;5.60;63.87
19286;BME280;9776;50.798;6.430;2023-03-04T08:33:44;101153.56;;;5.60;63.94
19286;BME280;9776;50.798;6.430;2023-03-04T08:36:11;101159.38;;;5.65;63.93
19286;BME280;9776;50.798;6.430;2023-03-04T08:38:38;101160.13;;;5.67;63.83
19286;BME280;9776;50.798;6.430;2023-03-04T08:41:05;101164.00;;;5.74;63.79
19286;BME280;9776;50.798;6.430;2023-03-04T08:43:32;101166.75;;;5.73;63.85
19286;BME280;9776;50.798;6.430;2023-03-04T08:46:00;101165.69;;;5.76;63.82
19286;BME280;9776;50.798;6.430;2023-03-04T08:48:27;101175.97;;;5.79;63.90
19286;BME280;9776;50.798;6.430;2023-03-04T08:50:53;101169.06;;;5.78;63.96
19286;BME280;9776;50.798;6.430;2023-03-04T08:53:20;101173.75;;;5.87;63.91
19286;BME280;9776;50.798;6.430;2023-03-04T08:55:47;101165.28;;;5.96;63.61
19286;BME280;9776;50.798;6.430;2023-03-04T08:58:16;101168.25;;;6.04;63.51
19286;BME280;9776;50.798;6.430;2023-03-04T09:00:44;101167.13;;;6.08;63.58
19286;BME280;9776;50.798;6.430;2023-03-04T09:03:14;101161.28;;;6.17;63.46
19286;BME280;9776;50.798;6.430;2023-03-04T09:05:44;101166.13;;;6.23;63.36
19286;BME280;9776;50.798;6.430;2023-03-04T09:08:11;101165.78;;;6.27;63.41
19286;BME280;9776;50.798;6.430;2023-03-04T09:10:38;101159.22;;;6.35;63.30
19286;BME280;9776;50.798;6.430;2023-03-04T09:13:04;101164.59;;;6.46;63.30
19286;BME280;9776;50.798;6.430;2023-03-04T09:15:31;101165.22;;;6.49;63.29
19286;BME280;9776;50.798;6.430;2023-03-04T09:18:00;101162.47;;;6.51;63.45
19286;BME280;9776;50.798;6.430;2023-03-04T09:20:28;101157.97;;;6.53;63.32
19286;BME280;9776;50.798;6.430;2023-03-04T09:22:55;101160.59;;;6.53;63.47
19286;BME280;9776;50.798;6.430;2023-03-04T09:25:21;101159.53;;;6.55;63.62
19286;BME280;9776;50.798;6.430;2023-03-04T09:27:48;101163.25;;;6.78;63.19
19286;BME280;9776;50.798;6.430;2023-03-04T09:30:15;101164.41;;;6.87;63.16
19286;BME280;9776;50.798;6.430;2023-03-04T09:32:42;101162.50;;;6.89;63.03
19286;BME280;9776;50.798;6.430;2023-03-04T09:35:08;101154.72;;;6.87;63.14
19286;BME280;9776;50.798;6.430;2023-03-04T09:37:36;101149.38;;;6.89;63.17
19286;BME280;9776;50.798;6.430;2023-03-04T09:40:04;101156.94;;;6.93;63.14
19286;BME280;9776;50.798;6.430;2023-03-04T09:42:34;101152.09;;;7.00;63.08
19286;BME280;9776;50.798;6.430;2023-03-04T09:45:05;101150.69;;;7.19;62.58
19286;BME280;9776;50.798;6.430;2023-03-04T09:47:36;101152.59;;;7.30;62.38
19286;BME280;9776;50.798;6.430;2023-03-04T09:50:07;101154.31;;;7.42;62.21
19286;BME280;9776;50.798;6.430;2023-03-04T09:52:48;101150.81;;;7.54;61.70
19286;BME280;9776;50.798;6.430;2023-03-04T09:55:22;101143.75;;;7.67;61.48
19286;BME280;9776;50.798;6.430;2023-03-04T09:57:52;101137.97;;;8.10;60.66
19286;BME280;9776;50.798;6.430;2023-03-04T10:00:22;101134.00;;;8.96;58.87
19286;BME280;9776;50.798;6.430;2023-03-04T10:03:05;101133.56;;;10.31;55.76
19286;BME280;9776;50.798;6.430;2023-03-04T10:05:41;101130.91;;;11.91;52.52
19286;BME280;9776;50.798;6.430;2023-03-04T10:08:26;101132.81;;;13.57;48.88
19286;BME280;9776;50.798;6.430;2023-03-04T10:10:58;101123.94;;;15.48;45.39
19286;BME280;9776;50.798;6.430;2023-03-04T10:13:30;101130.72;;;16.17;43.81
19286;BME280;9776;50.798;6.430;2023-03-04T10:16:02;101131.22;;;16.61;42.70
19286;BME280;9776;50.798;6.430;2023-03-04T10:18:33;101129.03;;;15.83;43.53
19286;BME280;9776;50.798;6.430;2023-03-04T10:21:05;101134.69;;;14.97;45.38
19286;BME280;9776;50.798;6.430;2023-03-04T10:23:36;101125.50;;;13.24;48.17
19286;BME280;9776;50.798;6.430;2023-03-04T10:26:11;101131.16;;;11.79;51.20
19286;BME280;9776;50.798;6.430;2023-03-04T10:28:38;101132.63;;;10.82;53.20
19286;BME280;9776;50.798;6.430;2023-03-04T10:31:10;101128.53;;;10.48;53.87
19286;BME280;9776;50.798;6.430;2023-03-04T10:33:39;101122.91;;;10.83;53.12
19286;BME280;9776;50.798;6.430;2023-03-04T10:36:21;101124.41;;;11.06;52.06
19286;BME280;9776;50.798;6.430;2023-03-04T10:38:56;101117.53;;;10.64;52.51
19286;BME280;9776;50.798;6.430;2023-03-04T10:41:26;101123.97;;;9.98;53.90
19286;BME280;9776;50.798;6.430;2023-03-04T10:44:00;101119.97;;;9.40;55.18
19286;BME280;9776;50.798;6.430;2023-03-04T10:46:27;101114.97;;;9.15;55.60
19286;BME280;9776;50.798;6.430;2023-03-04T10:48:54;101114.72;;;9.18;55.42
19286;BME280;9776;50.798;6.430;2023-03-04T10:51:22;101111.28;;;9.92;53.90
19286;BME280;9776;50.798;6.430;2023-03-04T10:53:51;101114.91;;;10.43;52.77
19286;BME280;9776;50.798;6.430;2023-03-04T10:56:34;101111.75;;;10.49;52.10
19286;BME280;9776;50.798;6.430;2023-03-04T10:59:24;101107.81;;;10.44;52.13
19286;BME280;9776;50.798;6.430;2023-03-04T11:01:54;101110.13;;;10.37;52.60
19286;BME280;9776;50.798;6.430;2023-03-04T11:04:23;101110.81;;;10.60;52.28
19286;BME280;9776;50.798;6.430;2023-03-04T11:06:50;101106.47;;;10.79;51.67
19286;BME280;9776;50.798;6.430;2023-03-04T11:09:22;101109.81;;;10.31;52.25
19286;BME280;9776;50.798;6.430;2023-03-04T11:11:51;101109.75;;;9.89;53.23
19286;BME280;9776;50.798;6.430;2023-03-04T11:14:23;101102.28;;;9.62;53.92
19286;BME280;9776;50.798;6.430;2023-03-04T11:16:55;101102.69;;;9.47;54.08
19286;BME280;9776;50.798;6.430;2023-03-04T11:19:23;101104.66;;;9.23;54.51
19286;BME280;9776;50.798;6.430;2023-03-04T11:21:54;101099.00;;;9.27;54.60
19286;BME280;9776;50.798;6.430;2023-03-04T11:24:24;101093.69;;;9.60;53.95
19286;BME280;9776;50.798;6.430;2023-03-04T11:26:59;101094.63;;;10.44;52.10
19286;BME280;9776;50.798;6.430;2023-03-04T11:29:30;101091.31;;;11.02;50.61
19286;BME280;9776;50.798;6.430;2023-03-04T11:32:04;101094.81;;;11.12;50.38
19286;BME280;9776;50.798;6.430;2023-03-04T11:34:36;101087.38;;;10.97;50.64
19286;BME280;9776;50.798;6.430;2023-03-04T11:37:07;101087.81;;;10.71;51.29
19286;BME280;9776;50.798;6.430;2023-03-04T11:39:40;101080.78;;;10.31;52.00
19286;BME280;9776;50.798;6.430;2023-03-04T11:42:19;101075.66;;;9.97;52.38
19286;BME280;9776;50.798;6.430;2023-03-04T11:44:47;101081.41;;;9.70;53.06
19286;BME280;9776;50.798;6.430;2023-03-04T11:47:40;101080.25;;;9.52;53.39
19286;BME280;9776;50.798;6.430;2023-03-04T11:50:25;101073.94;;;9.55;53.30
19286;BME280;9776;50.798;6.430;2023-03-04T11:53:08;101066.03;;;9.55;53.37
19286;BME280;9776;50.798;6.430;2023-03-04T11:55:44;101067.13;;;9.41;53.59
19286;BME280;9776;50.798;6.430;2023-03-04T11:58:43;101059.91;;;9.11;54.20
19286;BME280;9776;50.798;6.430;2023-03-04T12:01:15;101066.84;;;9.01;54.58
19286;BME280;9776;50.798;6.430;2023-03-04T12:04:03;101064.47;;;8.76;55.12
19286;BME280;9776;50.798;6.430;2023-03-04T12:06:42;101056.44;;;8.78;55.06
19286;BME280;9776;50.798;6.430;2023-03-04T12:09:20;101053.56;;;8.81;55.05
19286;BME280;9776;50.798;6.430;2023-03-04T12:11:57;101054.63;;;8.89;54.75
19286;BME280;9776;50.798;6.430;2023-03-04T12:14:30;101046.50;;;8.92;54.90
19286;BME280;9776;50.798;6.430;2023-03-04T12:17:22;101045.56;;;8.71;55.20
19286;BME280;9776;50.798;6.430;2023-03-04T12:20:02;101042.22;;;8.58;55.41
19286;BME280;9776;50.798;6.430;2023-03-04T12:22:42;101039.72;;;8.57;55.61
19286;BME280;9776;50.798;6.430;2023-03-04T12:25:33;101039.72;;;8.45;55.70
19286;BME280;9776;50.798;6.430;2023-03-04T12:28:15;101037.41;;;8.41;55.98
19286;BME280;9776;50.798;6.430;2023-03-04T12:30:58;101029.75;;;8.38;55.98
19286;BME280;9776;50.798;6.430;2023-03-04T12:33:35;101030.38;;;8.41;56.08
19286;BME280;9776;50.798;6.430;2023-03-04T12:36:12;101029.66;;;8.50;55.87
19286;BME280;9776;50.798;6.430;2023-03-04T12:38:50;101023.31;;;8.64;55.61
19286;BME280;9776;50.798;6.430;2023-03-04T12:41:29;101025.94;;;8.75;55.40
19286;BME280;9776;50.798;6.430;2023-03-04T12:44:06;101025.09;;;8.75;55.54
19286;BME280;9776;50.798;6.430;2023-03-04T12:46:45;101019.59;;;8.67;55.81
19286;BME280;9776;50.798;6.430;2023-03-04T12:49:28;101015.56;;;8.63;55.85
19286;BME280;9776;50.798;6.430;2023-03-04T12:52:03;101015.78;;;8.60;56.12
19286;BME280;9776;50.798;6.430;2023-03-04T12:54:36;101004.53;;;8.57;56.26
19286;BME280;9776;50.798;6.430;2023-03-04T12:57:10;100996.41;;;8.61;56.10
19286;BME280;9776;50.798;6.430;2023-03-04T12:59:43;101000.34;;;8.66;56.13
19286;BME280;9776;50.798;6.430;2023-03-04T13:02:41;100990.41;;;8.70;56.16
19286;BME280;9776;50.798;6.430;2023-03-04T13:05:35;100991.47;;;8.78;56.08
19286;BME280;9776;50.798;6.430;2023-03-04T13:08:14;100991.94;;;8.94;56.00
19286;BME280;9776;50.798;6.430;2023-03-04T13:10:44;100996.25;;;8.95;56.01
19286;BME280;9776;50.798;6.430;2023-03-04T13:13:32;100981.94;;;8.77;56.26
19286;BME280;9776;50.798;6.430;2023-03-04T13:16:04;100989.44;;;8.82;56.49
19286;BME280;9776;50.798;6.430;2023-03-04T13:18:34;100987.75;;;8.81;56.49
19286;BME280;9776;50.798;6.430;2023-03-04T13:21:20;100986.47;;;8.64;56.74
19286;BME280;9776;50.798;6.430;2023-03-04T13:23:48;100979.53;;;8.63;56.86
19286;BME280;9776;50.798;6.430;2023-03-04T13:26:33;100973.34;;;8.53;57.15